Time;durP1;ratioP1;P1;durP2;ratioP2;P2;SDS_P1;SDS_P2;PMS_P1;PMS_P2;Temp;Humidity;BMP_temperature;BMP_pressure;BME280_temperature;BME280_humidity;BME280_pressure;Samples;Min_cycle;Max_cycle;Signal;HPM_P1;HPM_P2
2021/05/13 00:00:42;;;;;;;9.40;2.20;;;;;;;13.56;81.91;99588.94;5059711;28;20058;-96
2021/05/13 00:03:07;;;;;;;7.70;2.40;;;;;;;13.62;81.26;99583.09;5057707;28;20039;-95
2021/05/13 00:05:33;;;;;;;10.98;2.72;;;;;;;13.55;81.90;99577.56;5057613;28;20394;-93
2021/05/13 00:07:58;;;;;;;7.60;2.38;;;;;;;13.45;81.59;99579.41;5057875;28;20033;-96
2021/05/13 00:10:25;;;;;;;7.20;1.95;;;;;;;13.61;81.18;99571.72;5057597;28;20024;-96
2021/05/13 00:12:56;;;;;;;9.27;2.83;;;;;;;13.63;81.05;99566.31;5057631;28;20025;-96
2021/05/13 00:15:30;;;;;;;11.23;2.42;;;;;;;13.65;81.99;99567.00;5057167;28;20020;-96
2021/05/13 00:17:56;;;;;;;12.32;3.55;;;;;;;13.55;82.25;99571.47;5058978;28;20025;-96
2021/05/13 00:20:26;;;;;;;11.68;3.45;;;;;;;13.62;81.78;99569.91;5057522;28;20457;-96
2021/05/13 00:22:52;;;;;;;12.57;3.17;;;;;;;13.54;81.37;99559.25;5057980;28;20021;-96
2021/05/13 00:25:18;;;;;;;7.10;2.75;;;;;;;13.74;81.00;99562.63;5057202;28;20467;-95
2021/05/13 00:27:44;;;;;;;5.50;2.90;;;;;;;13.69;81.11;99555.16;5057869;28;20025;-96
2021/05/13 00:30:09;;;;;;;12.70;3.00;;;;;;;13.57;81.25;99561.59;5057279;28;20482;-95
2021/05/13 00:32:38;;;;;;;8.73;2.58;;;;;;;13.67;81.32;99565.03;5056840;28;20060;-96
2021/05/13 00:35:05;;;;;;;4.03;2.63;;;;;;;13.48;82.61;99553.56;5057471;28;20051;-96
2021/05/13 00:37:31;;;;;;;11.98;3.63;;;;;;;13.41;83.40;99560.41;5059429;28;20021;-96
2021/05/13 00:39:58;;;;;;;8.68;3.00;;;;;;;13.52;82.75;99550.66;5078344;28;20047;-95
2021/05/13 00:42:23;;;;;;;12.38;3.35;;;;;;;13.58;81.88;99555.34;5057567;28;20025;-95
2021/05/13 00:44:51;;;;;;;6.47;2.65;;;;;;;13.60;82.03;99561.31;5057431;28;20029;-96
2021/05/13 00:47:17;;;;;;;15.43;3.42;;;;;;;13.53;81.87;99562.88;5056570;28;20337;-95
2021/05/13 00:49:42;;;;;;;11.18;2.95;;;;;;;13.56;81.74;99559.94;5056385;28;20028;-95
2021/05/13 00:52:12;;;;;;;9.75;4.10;;;;;;;13.53;82.06;99553.16;5055670;28;20602;-95
2021/05/13 00:54:41;;;;;;;5.43;2.88;;;;;;;13.60;81.24;99553.38;5056940;28;20021;-95
2021/05/13 00:57:07;;;;;;;9.95;3.47;;;;;;;13.39;82.09;99540.41;5056410;28;20017;-95
2021/05/13 00:59:36;;;;;;;10.90;3.42;;;;;;;13.56;81.54;99549.38;5056439;28;20580;-96
2021/05/13 01:02:01;;;;;;;9.85;3.75;;;;;;;13.76;80.97;99550.13;5056096;28;20363;-96
2021/05/13 01:04:27;;;;;;;9.73;4.20;;;;;;;13.66;82.21;99543.09;5056376;28;20027;-96
2021/05/13 01:06:55;;;;;;;10.13;5.15;;;;;;;13.54;82.25;99540.78;5056631;28;20039;-96
2021/05/13 01:09:24;;;;;;;8.35;3.72;;;;;;;13.49;82.20;99549.13;5056728;28;20070;-96
2021/05/13 01:11:54;;;;;;;8.23;3.90;;;;;;;13.42;82.78;99545.41;5055954;28;20033;-95
2021/05/13 01:17:00;;;;;;;9.52;3.80;;;;;;;13.52;81.54;99540.91;5074648;28;20017;-96
2021/05/13 01:19:26;;;;;;;10.80;4.10;;;;;;;13.37;82.51;99540.56;5056865;28;20017;-95
2021/05/13 01:21:51;;;;;;;9.45;3.72;;;;;;;13.49;83.39;99536.78;5057367;28;20108;-96
2021/05/13 01:24:17;;;;;;;13.00;4.50;;;;;;;13.52;83.11;99534.81;5058382;28;20017;-96
2021/05/13 01:26:47;;;;;;;8.15;3.80;;;;;;;13.50;83.19;99534.97;5058478;28;20028;-96
2021/05/13 01:29:16;;;;;;;8.05;4.00;;;;;;;13.62;82.61;99535.63;5056795;28;20052;-96
2021/05/13 01:31:41;;;;;;;9.40;3.65;;;;;;;13.58;82.69;99528.97;5057997;28;20027;-96
2021/05/13 01:34:07;;;;;;;7.43;3.60;;;;;;;13.65;82.26;99522.97;5058117;28;20020;-96
2021/05/13 01:36:34;;;;;;;8.70;3.75;;;;;;;13.52;82.56;99530.38;5056774;28;20024;-96
2021/05/13 01:39:00;;;;;;;7.53;3.28;;;;;;;13.56;82.23;99528.28;5056364;28;20029;-96
2021/05/13 01:41:25;;;;;;;10.05;3.45;;;;;;;13.69;81.46;99528.78;5056081;28;20024;-96
2021/05/13 01:43:51;;;;;;;7.30;3.50;;;;;;;13.72;81.27;99525.84;5056239;28;20024;-96
2021/05/13 01:46:16;;;;;;;7.55;3.63;;;;;;;13.47;81.45;99525.53;5056498;28;20028;-96
2021/05/13 01:48:42;;;;;;;9.75;3.60;;;;;;;13.22;84.35;99523.50;5056280;28;20017;-96
2021/05/13 01:51:08;;;;;;;12.82;3.70;;;;;;;13.33;82.48;99527.78;5056771;28;20363;-96
2021/05/13 01:53:33;;;;;;;14.20;4.57;;;;;;;13.39;82.69;99520.16;5056843;28;20025;-96
2021/05/13 01:55:59;;;;;;;11.25;3.60;;;;;;;13.29;83.23;99514.06;5056290;28;20025;-96
2021/05/13 01:58:24;;;;;;;9.90;3.95;;;;;;;13.06;85.20;99524.94;5060383;28;20075;-95
2021/05/13 02:00:50;;;;;;;11.52;3.72;;;;;;;13.32;84.07;99519.06;5057998;28;20084;-96
2021/05/13 02:03:17;;;;;;;11.35;4.10;;;;;;;13.52;83.18;99521.63;5057508;28;20089;-96
2021/05/13 02:05:43;;;;;;;11.57;4.15;;;;;;;13.30;83.18;99507.84;5057962;28;20058;-96
2021/05/13 02:08:08;;;;;;;13.82;3.67;;;;;;;13.15;84.34;99511.88;5059726;28;20032;-95
2021/05/13 02:10:34;;;;;;;8.30;3.72;;;;;;;13.38;82.69;99518.47;5064005;28;20035;-96
2021/05/13 02:13:00;;;;;;;7.95;3.45;;;;;;;13.50;82.00;99511.22;5068480;28;20029;-95
2021/05/13 02:15:25;;;;;;;7.28;3.90;;;;;;;13.40;83.34;99506.00;5067061;28;20016;-96
2021/05/13 02:17:51;;;;;;;13.50;3.50;;;;;;;13.40;83.10;99499.88;5064413;28;20031;-96
2021/05/13 02:20:20;;;;;;;12.73;3.72;;;;;;;12.93;84.43;99492.75;5064219;28;20112;-96
2021/05/13 02:22:46;;;;;;;11.43;3.72;;;;;;;13.24;82.00;99479.38;5063075;28;20062;-96
2021/05/13 02:25:12;;;;;;;8.13;3.65;;;;;;;13.22;82.71;99483.97;5061538;28;20080;-95
2021/05/13 02:27:38;;;;;;;11.13;3.35;;;;;;;13.29;83.42;99479.78;5061893;28;20036;-96
2021/05/13 02:30:09;;;;;;;7.18;3.35;;;;;;;13.36;83.20;99480.06;5061516;28;20035;-96
2021/05/13 02:32:34;;;;;;;12.57;3.70;;;;;;;13.35;83.60;99489.78;5063259;28;20478;-96
2021/05/13 02:35:00;;;;;;;8.35;3.42;;;;;;;13.47;83.14;99496.53;5060778;28;20025;-96
2021/05/13 02:37:27;;;;;;;8.68;3.38;;;;;;;13.09;84.33;99477.22;5066029;28;20078;-96
2021/05/13 02:39:53;;;;;;;7.47;3.15;;;;;;;13.22;83.21;99468.16;5063306;28;20116;-96
2021/05/13 02:42:21;;;;;;;7.72;3.53;;;;;;;13.13;83.88;99466.38;5062623;28;20112;-96
2021/05/13 02:44:47;;;;;;;8.63;3.58;;;;;;;13.12;83.52;99476.09;5044288;28;20032;-95
2021/05/13 02:47:12;;;;;;;8.23;3.10;;;;;;;13.24;83.84;99492.56;5067029;28;20017;-96
2021/05/13 02:49:38;;;;;;;6.85;3.20;;;;;;;13.01;84.60;99482.38;5064618;28;20047;-96
2021/05/13 02:52:04;;;;;;;11.38;3.83;;;;;;;13.08;83.50;99459.72;5064179;28;20027;-95
2021/05/13 02:54:30;;;;;;;9.00;3.17;;;;;;;13.11;83.89;99466.50;5067601;28;20044;-96
2021/05/13 02:56:55;;;;;;;8.32;3.63;;;;;;;13.16;83.45;99466.91;5060148;28;20029;-96
2021/05/13 02:59:28;;;;;;;10.55;3.53;;;;;;;13.37;83.46;99486.97;5061865;28;20027;-95
2021/05/13 03:01:53;;;;;;;7.78;2.85;;;;;;;13.22;83.73;99492.69;5059300;28;20016;-96
2021/05/13 03:04:18;;;;;;;8.02;3.08;;;;;;;13.04;84.46;99468.91;5059046;28;20028;-96
2021/05/13 03:06:44;;;;;;;13.40;3.50;;;;;;;13.22;83.83;99482.16;5059166;28;20024;-96
2021/05/13 03:09:10;;;;;;;8.52;3.25;;;;;;;13.29;83.42;99482.44;5061211;28;20027;-96
2021/05/13 03:11:35;;;;;;;8.38;3.42;;;;;;;13.23;84.19;99480.34;5062734;28;20543;-96
2021/05/13 03:14:02;;;;;;;12.20;3.20;;;;;;;13.00;84.83;99478.06;5061646;28;20029;-96
2021/05/13 03:16:29;;;;;;;10.23;3.08;;;;;;;12.92;85.25;99479.75;5059861;28;20082;-96
2021/05/13 03:18:56;;;;;;;10.95;3.53;;;;;;;13.27;84.16;99479.09;5058386;28;20025;-96
2021/05/13 03:21:30;;;;;;;6.93;3.25;;;;;;;13.19;84.54;99477.19;5060773;28;20036;-96
2021/05/13 03:24:03;;;;;;;12.90;4.05;;;;;;;13.21;84.37;99471.75;5059995;28;20035;-96
2021/05/13 03:26:39;;;;;;;8.38;2.90;;;;;;;13.16;84.07;99461.66;5060679;28;20016;-95
2021/05/13 03:29:05;;;;;;;15.60;4.63;;;;;;;13.18;83.67;99466.78;5060490;28;20020;-95
2021/05/13 03:31:31;;;;;;;13.18;3.60;;;;;;;13.37;83.10;99461.47;5058930;28;20027;-96
2021/05/13 03:33:56;;;;;;;8.63;3.15;;;;;;;13.28;83.64;99459.66;5060061;28;20040;-96
2021/05/13 03:36:22;;;;;;;27.08;4.38;;;;;;;13.21;83.78;99455.94;5064770;28;20463;-96
2021/05/13 03:38:48;;;;;;;11.00;3.80;;;;;;;13.28;84.39;99472.84;5063146;28;20063;-96
2021/05/13 03:41:14;;;;;;;12.25;4.32;;;;;;;13.37;83.68;99464.09;5058960;28;20033;-95
2021/05/13 03:43:39;;;;;;;9.25;3.72;;;;;;;13.36;84.15;99461.59;5058223;28;20363;-96
2021/05/13 03:46:04;;;;;;;9.00;3.28;;;;;;;13.42;83.89;99469.75;5062108;28;20024;-96
2021/05/13 03:48:31;;;;;;;11.82;3.65;;;;;;;13.42;83.75;99456.56;5060321;28;20028;-96
2021/05/13 03:50:56;;;;;;;13.43;4.72;;;;;;;13.31;84.34;99459.41;5062684;28;20020;-96
2021/05/13 03:53:22;;;;;;;11.00;4.32;;;;;;;13.15;84.83;99462.63;5062434;28;20146;-96
2021/05/13 03:55:51;;;;;;;12.45;3.38;;;;;;;13.26;83.76;99451.88;5061446;28;20024;-96
2021/05/13 03:58:17;;;;;;;11.55;3.60;;;;;;;13.13;84.78;99463.72;5061233;28;20025;-96
2021/05/13 04:03:08;;;;;;;10.07;3.90;;;;;;;13.23;83.45;99456.63;5075706;28;20569;-96
2021/05/13 04:05:34;;;;;;;7.13;4.60;;;;;;;13.33;84.23;99457.47;5061114;28;20028;-96
2021/05/13 04:08:01;;;;;;;10.23;3.80;;;;;;;13.29;84.01;99450.78;5059821;28;20027;-96
2021/05/13 04:10:27;;;;;;;13.50;4.78;;;;;;;13.05;85.67;99454.75;5042573;28;20059;-96
2021/05/13 04:12:55;;;;;;;9.90;4.47;;;;;;;13.09;84.25;99450.84;5059434;28;20435;-96
2021/05/13 04:15:21;;;;;;;10.43;4.82;;;;;;;13.04;85.16;99447.00;5060147;28;20028;-96
2021/05/13 04:17:46;;;;;;;10.98;3.90;;;;;;;12.76;85.08;99441.66;5057891;28;20024;-95
2021/05/13 04:20:12;;;;;;;10.98;4.70;;;;;;;13.14;83.95;99449.59;5057686;28;20027;-96
2021/05/13 04:22:37;;;;;;;10.43;4.18;;;;;;;13.04;84.65;99439.91;5057598;28;20067;-96
2021/05/13 04:25:05;;;;;;;9.50;4.25;;;;;;;13.23;83.77;99440.81;5059476;28;20029;-96
2021/05/13 04:27:30;;;;;;;9.93;4.47;;;;;;;13.40;83.09;99445.34;5061817;28;20021;-96
2021/05/13 04:29:55;;;;;;;7.57;3.75;;;;;;;13.20;84.13;99434.03;5057269;28;20077;-96
2021/05/13 04:32:21;;;;;;;15.00;5.40;;;;;;;13.24;83.92;99442.47;5056639;28;20021;-95
2021/05/13 04:34:46;;;;;;;9.45;4.25;;;;;;;13.22;84.13;99441.78;5057860;28;20020;-96
2021/05/13 04:37:12;;;;;;;10.40;4.85;;;;;;;13.35;83.59;99444.13;5057169;28;20024;-96
2021/05/13 04:39:37;;;;;;;11.00;4.20;;;;;;;13.16;83.92;99435.28;5056433;28;20032;-94
2021/05/13 04:42:03;;;;;;;15.80;5.00;;;;;;;13.24;83.98;99427.47;5056456;28;20029;-96
2021/05/13 04:44:29;;;;;;;9.57;4.95;;;;;;;13.23;84.82;99436.38;5062477;28;20055;-96
2021/05/13 04:46:59;;;;;;;10.30;4.60;;;;;;;13.33;84.60;99436.38;5059158;28;20016;-96
2021/05/13 04:49:26;;;;;;;12.25;5.53;;;;;;;13.03;85.64;99433.00;5057432;28;20063;-96
2021/05/13 04:51:52;;;;;;;17.98;5.25;;;;;;;13.18;84.27;99430.69;5056812;28;20054;-95
2021/05/13 04:54:18;;;;;;;16.25;6.35;;;;;;;13.30;83.81;99441.94;5057010;28;20059;-95
2021/05/13 04:56:45;;;;;;;11.07;4.93;;;;;;;13.40;83.58;99442.69;5056202;28;20052;-95
2021/05/13 04:59:11;;;;;;;17.20;5.35;;;;;;;13.09;85.38;99431.56;5056799;28;20024;-95
2021/05/13 05:01:37;;;;;;;13.48;5.05;;;;;;;13.33;83.72;99436.38;5056571;28;20025;-96
2021/05/13 05:04:02;;;;;;;10.18;4.55;;;;;;;13.34;83.00;99445.94;5055963;28;20124;-96
2021/05/13 05:06:28;;;;;;;14.43;4.55;;;;;;;13.36;82.98;99445.78;5055888;28;20428;-95
2021/05/13 05:08:55;;;;;;;10.23;4.68;;;;;;;13.43;82.68;99445.06;5056812;28;20032;-96
2021/05/13 05:11:20;;;;;;;12.27;5.07;;;;;;;13.27;83.55;99443.03;5054414;28;20127;-95
2021/05/13 05:13:46;;;;;;;11.48;4.75;;;;;;;13.44;83.40;99444.06;5056258;28;20062;-96
2021/05/13 05:16:12;;;;;;;15.00;4.97;;;;;;;13.34;83.44;99427.47;5057202;28;20051;-95
2021/05/13 05:18:37;;;;;;;13.77;5.35;;;;;;;12.98;85.76;99443.13;5056409;28;20024;-96
2021/05/13 05:21:03;;;;;;;16.17;5.47;;;;;;;13.35;83.93;99447.59;5072841;28;20028;-95
2021/05/13 05:23:29;;;;;;;19.92;5.60;;;;;;;13.42;84.10;99447.84;5090189;28;20047;-96
2021/05/13 05:25:56;;;;;;;12.60;5.28;;;;;;;13.40;83.99;99434.78;5078128;28;20028;-96
2021/05/13 05:28:23;;;;;;;14.57;5.35;;;;;;;13.36;84.38;99427.34;5075836;28;20035;-96
2021/05/13 05:30:49;;;;;;;16.98;6.65;;;;;;;13.45;84.04;99437.00;5073963;28;20024;-96
2021/05/13 05:33:18;;;;;;;16.15;5.40;;;;;;;13.39;83.91;99430.50;5061768;28;20029;-96
2021/05/13 05:35:45;;;;;;;14.23;5.93;;;;;;;13.33;84.68;99425.81;5070496;28;20032;-96
2021/05/13 05:38:11;;;;;;;20.80;6.55;;;;;;;13.14;85.18;99426.69;5070739;28;20031;-96
2021/05/13 05:40:37;;;;;;;16.20;6.50;;;;;;;13.37;84.90;99427.19;5085745;28;20032;-96
2021/05/13 05:43:04;;;;;;;12.65;5.75;;;;;;;13.34;84.86;99440.66;5068929;28;20020;-95
2021/05/13 05:45:30;;;;;;;11.38;5.45;;;;;;;13.63;83.49;99431.78;5058713;28;20035;-96
2021/05/13 05:48:08;;;;;;;14.90;6.20;;;;;;;13.64;83.75;99436.88;5073178;28;20020;-96
2021/05/13 05:50:36;;;;;;;20.08;6.72;;;;;;;13.55;83.41;99411.41;5118022;22;20112;-95
2021/05/13 05:53:03;;;;;;;17.80;6.43;;;;;;;13.65;83.59;99421.91;5094037;28;20016;-95
2021/05/13 05:55:30;;;;;;;18.40;5.63;;;;;;;13.89;83.34;99439.81;5104130;22;20019;-96
2021/05/13 05:57:57;;;;;;;18.70;7.05;;;;;;;13.55;82.80;99397.41;5312958;22;20052;-94
2021/05/13 06:00:24;;;;;;;16.08;5.50;;;;;;;13.86;82.83;99433.03;5093381;28;20012;-96
2021/05/13 06:02:50;;;;;;;17.30;6.88;;;;;;;13.66;82.61;99407.72;5107945;22;20091;-95
2021/05/13 06:05:16;;;;;;;16.75;7.90;;;;;;;13.69;83.69;99394.25;5077347;28;20025;-96
2021/05/13 06:07:48;;;;;;;13.32;6.82;;;;;;;13.83;81.55;99400.81;5262623;22;20028;-96
2021/05/13 06:10:14;;;;;;;21.42;7.07;;;;;;;13.83;82.87;99438.59;5108764;28;20040;-93
2021/05/13 06:12:41;;;;;;;20.70;7.18;;;;;;;13.85;83.52;99433.16;5104121;28;20028;-92
2021/05/13 06:15:09;;;;;;;12.60;5.80;;;;;;;13.94;82.71;99411.16;5104399;28;20026;-92
2021/05/13 06:17:35;;;;;;;13.85;5.65;;;;;;;14.08;82.33;99438.84;5086392;28;20087;-93
2021/05/13 06:20:01;;;;;;;12.02;6.47;;;;;;;14.11;82.23;99435.88;5091063;28;20095;-92
2021/05/13 06:22:28;;;;;;;14.98;6.28;;;;;;;14.16;82.39;99428.34;5069641;28;20029;-92
2021/05/13 06:24:54;;;;;;;12.98;6.38;;;;;;;14.18;81.88;99436.97;5070095;28;20056;-91
2021/05/13 06:27:20;;;;;;;11.73;5.50;;;;;;;14.36;81.45;99428.19;5068080;28;20033;-95
2021/05/13 06:29:46;;;;;;;15.73;6.15;;;;;;;14.36;81.70;99433.47;5071848;28;20021;-94
2021/05/13 06:32:11;;;;;;;15.85;6.70;;;;;;;14.17;82.74;99424.72;5066461;28;20508;-95
2021/05/13 06:34:37;;;;;;;15.43;6.03;;;;;;;14.40;82.36;99433.00;5064232;28;20103;-95
2021/05/13 06:37:03;;;;;;;19.73;6.45;;;;;;;14.35;81.64;99418.59;5065240;28;20021;-93
2021/05/13 06:39:29;;;;;;;15.40;6.28;;;;;;;14.44;81.00;99428.25;5063389;28;20017;-94
2021/05/13 06:41:55;;;;;;;11.63;5.85;;;;;;;14.43;81.94;99439.78;5067198;28;20115;-94
2021/05/13 06:44:20;;;;;;;16.25;6.00;;;;;;;14.37;80.78;99422.75;5065270;28;21359;-93
2021/05/13 06:46:46;;;;;;;13.82;6.07;;;;;;;14.58;81.39;99425.09;5070968;28;20120;-93
2021/05/13 06:49:11;;;;;;;16.48;5.78;;;;;;;14.59;81.29;99421.47;5063777;28;20486;-93
2021/05/13 06:51:38;;;;;;;12.88;5.63;;;;;;;14.66;80.04;99435.72;5051633;28;20036;-93
2021/05/13 06:54:04;;;;;;;17.05;6.03;;;;;;;14.58;81.19;99438.31;5050935;28;20433;-93
2021/05/13 06:56:30;;;;;;;18.55;6.22;;;;;;;14.70;79.53;99446.00;5056488;28;20029;-94
2021/05/13 06:58:55;;;;;;;13.50;6.93;;;;;;;14.67;80.09;99440.03;5070166;28;20068;-93
2021/05/13 07:01:22;;;;;;;15.10;6.22;;;;;;;14.68;80.54;99439.03;5072120;28;20031;-93
2021/05/13 07:03:48;;;;;;;16.63;6.45;;;;;;;14.64;80.68;99442.97;5058599;28;20028;-93
2021/05/13 07:06:13;;;;;;;11.73;6.10;;;;;;;14.77;79.33;99444.38;5059085;28;20025;-94
2021/05/13 07:08:39;;;;;;;18.83;6.43;;;;;;;14.97;79.50;99445.84;5075979;28;20024;-94
2021/05/13 07:11:04;;;;;;;16.98;6.40;;;;;;;14.93;78.41;99446.28;5077508;28;20040;-92
2021/05/13 07:13:30;;;;;;;20.33;7.80;;;;;;;15.06;79.21;99442.22;5075798;28;20029;-94
2021/05/13 07:15:56;;;;;;;16.33;6.57;;;;;;;15.38;78.41;99439.91;5074668;28;20497;-96
2021/05/13 07:18:21;;;;;;;16.83;7.82;;;;;;;15.04;80.36;99446.84;5073582;28;20020;-94
2021/05/13 07:20:47;;;;;;;17.25;7.47;;;;;;;15.25;78.95;99445.66;5093944;28;20035;-94
2021/05/13 07:23:13;;;;;;;19.30;6.40;;;;;;;15.59;79.41;99447.44;5059590;28;20493;-94
2021/05/13 07:25:39;;;;;;;14.68;6.82;;;;;;;15.69;77.73;99461.38;5071263;28;20115;-95
2021/05/13 07:28:05;;;;;;;15.25;7.05;;;;;;;15.81;77.24;99454.00;5059355;28;20145;-96
2021/05/13 07:30:30;;;;;;;21.15;8.05;;;;;;;15.52;79.23;99460.50;5080864;28;20486;-94
2021/05/13 07:32:56;;;;;;;20.17;8.27;;;;;;;15.88;76.49;99457.66;5056083;28;20035;-94
2021/05/13 07:35:22;;;;;;;10.65;6.63;;;;;;;15.97;75.24;99466.44;5056502;28;20045;-95
2021/05/13 07:37:48;;;;;;;13.80;6.60;;;;;;;15.98;75.43;99462.81;5054300;28;20017;-95
2021/05/13 07:40:17;;;;;;;21.45;8.65;;;;;;;15.88;75.25;99457.66;5055865;28;20096;-93
2021/05/13 07:42:43;;;;;;;10.82;6.68;;;;;;;15.96;76.18;99464.81;5066367;28;20021;-94
2021/05/13 07:45:09;;;;;;;16.35;7.80;;;;;;;15.76;75.26;99465.06;5074158;28;20031;-94
2021/05/13 07:47:37;;;;;;;33.60;9.10;;;;;;;15.85;76.67;99461.44;5067243;28;20052;-95
2021/05/13 07:50:14;;;;;;;18.55;7.85;;;;;;;15.78;75.01;99473.69;5069934;28;20028;-94
2021/05/13 07:52:40;;;;;;;18.25;7.57;;;;;;;16.19;75.06;99457.03;5076777;28;20025;-94
2021/05/13 07:55:07;;;;;;;16.50;6.88;;;;;;;16.24;74.84;99463.50;5071801;28;20036;-94
2021/05/13 07:57:32;;;;;;;12.95;7.72;;;;;;;16.33;74.15;99459.06;5062980;28;20609;-94
2021/05/13 07:59:58;;;;;;;13.75;6.75;;;;;;;16.46;71.95;99469.97;5072941;28;20048;-94
2021/05/13 08:02:23;;;;;;;10.32;5.82;;;;;;;16.48;73.44;99474.28;5072795;28;20158;-93
2021/05/13 08:04:49;;;;;;;14.38;6.75;;;;;;;16.52;71.73;99471.13;5075338;28;20028;-93
2021/05/13 08:07:19;;;;;;;14.90;6.05;;;;;;;16.51;73.09;99477.44;5068816;28;20430;-93
2021/05/13 08:09:44;;;;;;;11.98;6.00;;;;;;;16.36;74.40;99465.84;5076439;28;20028;-92
2021/05/13 08:12:10;;;;;;;17.27;7.00;;;;;;;16.23;74.06;99469.81;5079714;28;20441;-93
2021/05/13 08:14:35;;;;;;;12.45;6.43;;;;;;;15.84;75.60;99474.84;5076654;28;20060;-95
2021/05/13 08:17:00;;;;;;;16.85;6.28;;;;;;;16.09;74.27;99481.03;5070094;28;20108;-94
2021/05/13 08:19:26;;;;;;;17.13;5.75;;;;;;;16.08;73.50;99470.63;5078493;28;20028;-93
2021/05/13 08:21:51;;;;;;;9.55;5.45;;;;;;;16.13;74.13;99485.00;5075673;28;20059;-93
2021/05/13 08:24:16;;;;;;;10.32;4.82;;;;;;;16.19;74.66;99470.28;5076294;28;20078;-92
2021/05/13 08:26:43;;;;;;;10.30;5.40;;;;;;;16.05;75.39;99469.09;5089941;28;20058;-92
2021/05/13 08:29:09;;;;;;;10.23;4.93;;;;;;;16.05;75.18;99477.03;5084109;28;20025;-94
2021/05/13 08:31:34;;;;;;;10.98;5.95;;;;;;;16.02;76.11;99472.09;5074391;28;20035;-93
2021/05/13 08:34:00;;;;;;;19.08;6.95;;;;;;;15.66;76.55;99469.66;5074892;28;20025;-94
2021/05/13 08:36:25;;;;;;;11.88;5.90;;;;;;;15.82;76.80;99480.31;5073933;28;20468;-94
2021/05/13 08:38:51;;;;;;;15.32;6.25;;;;;;;15.75;75.99;99463.41;5075327;28;20111;-94
2021/05/13 08:41:16;;;;;;;11.82;5.45;;;;;;;15.82;76.21;99468.91;5076125;28;20067;-93
2021/05/13 08:43:49;;;;;;;11.70;6.28;;;;;;;15.76;76.98;99475.66;5075765;28;20386;-94
2021/05/13 08:46:19;;;;;;;17.73;6.63;;;;;;;15.82;77.60;99477.66;5068402;28;20093;-95
2021/05/13 08:48:46;;;;;;;21.27;7.30;;;;;;;15.75;76.49;99473.16;5071599;28;20032;-94
2021/05/13 08:51:12;;;;;;;10.35;6.20;;;;;;;15.83;76.47;99466.06;5075887;28;20033;-93
2021/05/13 08:53:53;;;;;;;11.85;5.47;;;;;;;15.97;76.88;99477.84;5074814;28;20024;-94
2021/05/13 08:56:19;;;;;;;13.43;7.28;;;;;;;15.84;77.18;99467.75;5074289;28;20036;-93
2021/05/13 08:58:45;;;;;;;13.63;7.38;;;;;;;16.02;77.80;99470.25;5076324;28;20028;-95
2021/05/13 09:01:22;;;;;;;15.45;8.38;;;;;;;16.02;77.17;99474.75;5072778;28;20108;-94
2021/05/13 09:03:49;;;;;;;18.42;8.45;;;;;;;16.19;76.16;99465.84;5072271;28;20067;-94
2021/05/13 09:06:26;;;;;;;16.13;8.20;;;;;;;16.22;76.56;99465.50;5071858;28;20020;-93
2021/05/13 09:08:52;;;;;;;13.95;9.00;;;;;;;16.19;76.36;99460.53;5074176;28;20047;-93
2021/05/13 09:11:18;;;;;;;15.77;8.57;;;;;;;16.09;76.05;99453.72;5062472;28;20029;-91
2021/05/13 09:13:48;;;;;;;18.20;9.90;;;;;;;15.97;76.76;99464.63;5073498;28;20036;-93
2021/05/13 09:16:36;;;;;;;13.68;8.70;;;;;;;16.15;76.76;99466.31;5076025;28;20021;-92
2021/05/13 09:19:22;;;;;;;15.45;8.43;;;;;;;16.10;78.29;99466.81;5074174;28;20025;-94
2021/05/13 09:21:51;;;;;;;20.00;9.90;;;;;;;15.99;78.78;99464.47;5073865;28;20024;-93
2021/05/13 09:24:40;;;;;;;18.65;10.23;;;;;;;15.75;78.81;99454.63;5073985;28;20383;-94
2021/05/13 09:27:21;;;;;;;16.00;9.35;;;;;;;15.89;77.81;99466.44;5073934;28;20135;-94
2021/05/13 09:29:48;;;;;;;27.45;12.45;;;;;;;16.04;78.29;99472.75;5074270;28;20028;-93
2021/05/13 09:32:22;;;;;;;23.02;11.85;;;;;;;16.29;78.70;99459.53;5070609;28;20028;-93
2021/05/13 09:34:47;;;;;;;18.85;10.00;;;;;;;16.43;77.41;99459.72;5070732;28;20070;-94
2021/05/13 09:37:14;;;;;;;18.73;10.10;;;;;;;16.50;77.98;99465.19;5075460;28;20024;-95
2021/05/13 09:39:47;;;;;;;14.77;9.48;;;;;;;16.52;77.64;99467.66;5077459;28;20028;-94
2021/05/13 09:42:17;;;;;;;18.92;11.18;;;;;;;16.41;78.10;99467.00;5060957;28;20589;-94
2021/05/13 09:44:43;;;;;;;18.67;9.95;;;;;;;16.48;78.37;99459.22;5073214;28;20021;-93
2021/05/13 09:47:26;;;;;;;17.48;9.60;;;;;;;16.70;76.88;99462.19;5074480;28;20036;-93
2021/05/13 09:49:55;;;;;;;15.43;8.68;;;;;;;16.87;76.74;99452.44;5084776;28;20028;-94
2021/05/13 09:52:39;;;;;;;16.40;8.85;;;;;;;16.85;77.06;99457.91;5073785;28;20511;-95
2021/05/13 09:55:29;;;;;;;15.98;9.25;;;;;;;17.05;77.12;99453.88;5071667;28;20198;-96
2021/05/13 09:58:06;;;;;;;15.32;8.05;;;;;;;17.05;76.17;99455.72;5074760;28;20095;-94
2021/05/13 10:00:36;;;;;;;20.40;9.18;;;;;;;17.03;76.58;99455.06;5082074;28;20025;-94
2021/05/13 10:03:05;;;;;;;13.68;8.18;;;;;;;16.81;76.30;99454.75;5074304;28;20070;-94
2021/05/13 10:05:32;;;;;;;18.65;8.48;;;;;;;16.87;75.93;99458.56;5075243;28;20021;-94
2021/05/13 10:07:58;;;;;;;14.40;8.15;;;;;;;16.90;75.18;99458.22;5067513;28;20029;-95
2021/05/13 10:10:23;;;;;;;13.23;7.80;;;;;;;16.94;74.77;99470.16;5078312;28;20100;-96
2021/05/13 10:12:53;;;;;;;13.25;7.10;;;;;;;16.85;76.03;99471.97;5074478;28;20422;-95
2021/05/13 10:15:18;;;;;;;15.75;7.80;;;;;;;16.85;75.27;99463.22;5073348;28;20016;-95
2021/05/13 10:17:45;;;;;;;21.05;8.82;;;;;;;16.74;76.95;99468.81;5065651;28;20100;-94
2021/05/13 10:20:15;;;;;;;16.38;7.20;;;;;;;16.76;76.11;99466.81;5072169;28;20024;-94
2021/05/13 10:22:46;;;;;;;22.02;9.52;;;;;;;16.48;76.46;99466.34;5072283;28;20390;-95
2021/05/13 10:25:31;;;;;;;15.85;7.10;;;;;;;16.54;76.54;99468.34;5065753;28;20025;-95
2021/05/13 10:27:59;;;;;;;12.95;7.72;;;;;;;16.28;77.87;99468.50;5065772;28;20162;-94
2021/05/13 10:30:31;;;;;;;15.25;7.47;;;;;;;16.22;78.39;99462.84;5075299;28;20390;-95
2021/05/13 10:33:05;;;;;;;16.30;7.22;;;;;;;16.07;78.56;99467.13;5072077;28;20036;-93
2021/05/13 10:35:31;;;;;;;16.58;8.07;;;;;;;16.21;79.55;99473.59;5074729;28;20105;-93
2021/05/13 10:38:02;;;;;;;15.32;8.45;;;;;;;16.01;78.40;99473.06;5072000;28;20123;-93
2021/05/13 10:40:49;;;;;;;13.07;7.80;;;;;;;16.19;79.79;99460.53;5089895;28;20043;-94
2021/05/13 10:43:15;;;;;;;18.58;8.63;;;;;;;16.02;79.16;99475.56;5071380;28;20028;-93
2021/05/13 10:45:46;;;;;;;15.32;8.10;;;;;;;16.12;79.38;99472.78;5078672;28;20027;-93
2021/05/13 10:48:22;;;;;;;19.75;9.40;;;;;;;16.04;81.36;99467.47;5076459;28;20095;-94
2021/05/13 10:51:04;;;;;;;24.50;9.23;;;;;;;15.94;80.62;99464.94;5094612;28;20039;-95
2021/05/13 10:56:19;;;;;;;12.55;7.78;;;;;;;16.10;80.58;99456.22;5080656;28;19963;-94
2021/05/13 10:59:05;;;;;;;16.00;8.48;;;;;;;16.19;81.65;99454.38;5064027;28;20025;-94
2021/05/13 11:01:48;;;;;;;17.80;9.52;;;;;;;15.91;81.64;99459.97;5080854;28;20028;-94
2021/05/13 11:04:20;;;;;;;14.18;8.00;;;;;;;16.09;79.97;99466.97;5073630;28;20032;-94
2021/05/13 11:06:52;;;;;;;10.50;6.90;;;;;;;16.22;79.81;99456.72;5074355;28;20028;-93
2021/05/13 11:09:39;;;;;;;15.57;8.70;;;;;;;16.11;82.05;99460.50;5075404;28;20044;-93
2021/05/13 11:12:16;;;;;;;15.90;9.23;;;;;;;16.08;81.06;99449.44;5074046;28;20020;-94
2021/05/13 11:17:49;;;;;;;15.65;9.35;;;;;;;16.09;80.05;99472.25;5078110;28;20029;-95
2021/05/13 11:20:19;;;;;;;15.57;9.05;;;;;;;16.04;80.29;99472.75;5072505;28;20028;-94
2021/05/13 11:22:56;;;;;;;15.93;9.52;;;;;;;16.02;80.23;99475.56;5059581;28;20033;-93
2021/05/13 11:25:22;;;;;;;20.08;7.80;;;;;;;15.88;80.49;99499.16;5056416;28;20029;-95
2021/05/13 11:30:30;;;;;;;7.53;3.78;;;;;;;15.50;80.88;99502.16;5277198;22;20101;-95
2021/05/13 11:32:56;;;;;;;6.65;3.30;;;;;;;15.36;82.33;99506.19;5077553;28;20020;-96
2021/05/13 11:35:22;;;;;;;7.00;2.97;;;;;;;15.44;81.06;99500.97;5061454;28;20044;-96
2021/05/13 11:37:54;;;;;;;5.03;2.50;;;;;;;15.25;80.50;99485.31;5075281;28;20105;-94
2021/05/13 11:40:26;;;;;;;6.20;2.08;;;;;;;15.28;82.01;99492.94;5077096;28;20056;-92
2021/05/13 11:43:11;;;;;;;;;;;;;;;15.44;82.59;99503.63;5093588;28;20034;-94